Hatboro, Pennsylvania
Current Conditions -  °F | °C
As of 4:54 AM on Wednesday 26 Nov 2014 (Local Time) from KPNE Reporting Station
Light Rain Light Rain  
Wind Chill: 42°   Ceiling: 6500
Heat Index: 47°   Visibility: 10mi
Dew Point: 32°   Wind: 12mph
Humidity: 56%   Direction: 50°NE
Pressure: 30.08"   Gusts: NA
Location:  40.17°N, 75.11°W
Report Text: KPNE 260954Z 05010KT 10SM -RA BKN065 OVC080 08/00 A3008 RMK AO2 PRESFR SLP188 P0000 T00830000 $
Loading
Personal Weather Stations






























Interactive Weather Map New forecast layout! Learn more

10-Day Weather Forecast

Advertisements
Track Severe Weather on mobile